sensor_id;sensor_type;location;lat;lon;timestamp;pressure;altitude;pressure_sealevel;temperature;humidity
7962;BME280;4026;43.652;24.906;2023-07-29T00:00:40;98889.81;;;20.13;77.54
7962;BME280;4026;43.652;24.906;2023-07-29T00:03:07;98889.81;;;20.13;78.59
7962;BME280;4026;43.652;24.906;2023-07-29T00:05:33;98886.59;;;20.11;77.36
7962;BME280;4026;43.652;24.906;2023-07-29T00:08:00;98890.91;;;20.04;74.97
7962;BME280;4026;43.652;24.906;2023-07-29T00:10:27;98886.06;;;20.01;76.37
7962;BME280;4026;43.652;24.906;2023-07-29T00:12:56;98885.06;;;20.02;75.68
7962;BME280;4026;43.652;24.906;2023-07-29T00:15:22;98887.66;;;20.02;76.19
7962;BME280;4026;43.652;24.906;2023-07-29T00:17:49;98896.75;;;19.98;76.30
7962;BME280;4026;43.652;24.906;2023-07-29T00:20:16;98898.28;;;19.93;76.29
7962;BME280;4026;43.652;24.906;2023-07-29T00:22:43;98899.09;;;19.93;74.88
7962;BME280;4026;43.652;24.906;2023-07-29T00:25:10;98900.25;;;19.90;74.68
7962;BME280;4026;43.652;24.906;2023-07-29T00:27:37;98903.34;;;19.86;74.95
7962;BME280;4026;43.652;24.906;2023-07-29T00:30:06;98895.88;;;19.91;74.21
7962;BME280;4026;43.652;24.906;2023-07-29T00:32:35;98895.88;;;19.91;74.22
7962;BME280;4026;43.652;24.906;2023-07-29T00:35:02;98894.88;;;19.92;75.81
7962;BME280;4026;43.652;24.906;2023-07-29T00:37:29;98899.44;;;19.90;76.49
7962;BME280;4026;43.652;24.906;2023-07-29T00:39:56;98900.41;;;19.89;76.06
7962;BME280;4026;43.652;24.906;2023-07-29T00:42:23;98895.94;;;19.83;75.65
7962;BME280;4026;43.652;24.906;2023-07-29T00:44:50;98906.38;;;19.75;75.40
7962;BME280;4026;43.652;24.906;2023-07-29T00:47:19;98898.97;;;19.63;75.75
7962;BME280;4026;43.652;24.906;2023-07-29T00:49:46;98901.63;;;19.55;75.26
7962;BME280;4026;43.652;24.906;2023-07-29T00:52:13;98902.78;;;19.53;75.42
7962;BME280;4026;43.652;24.906;2023-07-29T00:54:42;98907.09;;;19.60;75.60
7962;BME280;4026;43.652;24.906;2023-07-29T00:57:10;98893.97;;;19.62;74.89
7962;BME280;4026;43.652;24.906;2023-07-29T00:59:39;98901.41;;;19.65;74.43
7962;BME280;4026;43.652;24.906;2023-07-29T01:02:06;98898.97;;;19.63;74.82
7962;BME280;4026;43.652;24.906;2023-07-29T01:04:35;98897.34;;;19.62;75.48
7962;BME280;4026;43.652;24.906;2023-07-29T01:07:09;98895.75;;;19.61;75.50
7962;BME280;4026;43.652;24.906;2023-07-29T01:09:46;98897.69;;;19.59;76.00
7962;BME280;4026;43.652;24.906;2023-07-29T01:12:21;98910.66;;;19.59;77.01
7962;BME280;4026;43.652;24.906;2023-07-29T01:14:55;98907.44;;;19.57;79.13
7962;BME280;4026;43.652;24.906;2023-07-29T01:17:28;98907.31;;;19.51;78.47
7962;BME280;4026;43.652;24.906;2023-07-29T01:20:02;98895.84;;;19.45;77.34
7962;BME280;4026;43.652;24.906;2023-07-29T01:22:32;98899.25;;;19.45;78.60
7962;BME280;4026;43.652;24.906;2023-07-29T01:25:01;98891.81;;;19.42;78.51
7962;BME280;4026;43.652;24.906;2023-07-29T01:27:28;98888.25;;;19.43;80.11
7962;BME280;4026;43.652;24.906;2023-07-29T01:29:56;98888.59;;;19.40;79.93
7962;BME280;4026;43.652;24.906;2023-07-29T01:32:28;98891.00;;;19.42;80.76
7962;BME280;4026;43.652;24.906;2023-07-29T01:34:59;98892.50;;;19.36;78.27
7962;BME280;4026;43.652;24.906;2023-07-29T01:37:30;98895.91;;;19.37;78.53
7962;BME280;4026;43.652;24.906;2023-07-29T01:40:01;98902.88;;;19.36;80.11
7962;BME280;4026;43.652;24.906;2023-07-29T01:42:29;98895.28;;;19.35;81.97
7962;BME280;4026;43.652;24.906;2023-07-29T01:44:57;98896.25;;;19.34;81.11
7962;BME280;4026;43.652;24.906;2023-07-29T01:47:24;98894.66;;;19.33;79.69
7962;BME280;4026;43.652;24.906;2023-07-29T01:49:51;98890.44;;;19.32;80.16
7962;BME280;4026;43.652;24.906;2023-07-29T01:52:18;98895.63;;;19.32;81.80
7962;BME280;4026;43.652;24.906;2023-07-29T01:54:45;98890.44;;;19.32;80.70
7962;BME280;4026;43.652;24.906;2023-07-29T01:57:13;98894.97;;;19.30;79.36
7962;BME280;4026;43.652;24.906;2023-07-29T01:59:40;98893.53;;;19.27;80.55
7962;BME280;4026;43.652;24.906;2023-07-29T02:02:07;98898.06;;;19.25;82.41
7962;BME280;4026;43.652;24.906;2023-07-29T02:04:33;98890.31;;;19.25;82.90
7962;BME280;4026;43.652;24.906;2023-07-29T02:07:00;98903.09;;;19.27;82.20
7962;BME280;4026;43.652;24.906;2023-07-29T02:09:27;98903.44;;;19.23;81.76
7962;BME280;4026;43.652;24.906;2023-07-29T02:11:54;98898.28;;;19.23;81.69
7962;BME280;4026;43.652;24.906;2023-07-29T02:14:23;98902.81;;;19.21;81.05
7962;BME280;4026;43.652;24.906;2023-07-29T02:16:50;98905.41;;;19.21;81.97
7962;BME280;4026;43.652;24.906;2023-07-29T02:19:17;98908.19;;;19.20;81.34
7962;BME280;4026;43.652;24.906;2023-07-29T02:21:44;98902.34;;;19.18;80.19
7962;BME280;4026;43.652;24.906;2023-07-29T02:24:11;98899.91;;;19.16;79.49
7962;BME280;4026;43.652;24.906;2023-07-29T02:26:37;98894.91;;;19.15;80.36
7962;BME280;4026;43.652;24.906;2023-07-29T02:29:04;98903.38;;;19.09;79.97
7962;BME280;4026;43.652;24.906;2023-07-29T02:31:32;98907.63;;;18.93;79.81
7962;BME280;4026;43.652;24.906;2023-07-29T02:34:02;98903.94;;;18.88;79.54
7962;BME280;4026;43.652;24.906;2023-07-29T02:36:29;98902.97;;;18.89;79.61
7962;BME280;4026;43.652;24.906;2023-07-29T02:38:56;98912.00;;;18.93;79.73
7962;BME280;4026;43.652;24.906;2023-07-29T02:41:23;98912.81;;;18.93;80.12
7962;BME280;4026;43.652;24.906;2023-07-29T02:43:50;98914.91;;;18.98;80.12
7962;BME280;4026;43.652;24.906;2023-07-29T02:46:17;98922.19;;;19.03;79.33
7962;BME280;4026;43.652;24.906;2023-07-29T02:48:46;98927.53;;;19.01;79.19
7962;BME280;4026;43.652;24.906;2023-07-29T02:51:13;98924.94;;;19.01;78.82
7962;BME280;4026;43.652;24.906;2023-07-29T02:53:40;98930.75;;;19.03;80.09
7962;BME280;4026;43.652;24.906;2023-07-29T02:56:06;98921.34;;;19.02;80.21
7962;BME280;4026;43.652;24.906;2023-07-29T02:58:35;98927.72;;;18.99;80.11
7962;BME280;4026;43.652;24.906;2023-07-29T03:01:03;98923.03;;;18.95;80.52
7962;BME280;4026;43.652;24.906;2023-07-29T03:03:31;98922.03;;;18.96;81.35
7962;BME280;4026;43.652;24.906;2023-07-29T03:06:01;98920.44;;;18.95;81.62
7962;BME280;4026;43.652;24.906;2023-07-29T03:08:28;98914.59;;;18.93;82.06
7962;BME280;4026;43.652;24.906;2023-07-29T03:10:56;98923.06;;;18.87;81.66
7962;BME280;4026;43.652;24.906;2023-07-29T03:13:23;98927.44;;;18.86;80.76
7962;BME280;4026;43.652;24.906;2023-07-29T03:15:50;98926.63;;;18.86;81.24
7962;BME280;4026;43.652;24.906;2023-07-29T03:18:16;98930.19;;;18.85;81.13
7962;BME280;4026;43.652;24.906;2023-07-29T03:20:43;98925.00;;;18.85;81.63
7962;BME280;4026;43.652;24.906;2023-07-29T03:23:11;98932.16;;;18.83;82.32
7962;BME280;4026;43.652;24.906;2023-07-29T03:25:38;98934.09;;;18.81;82.45
7962;BME280;4026;43.652;24.906;2023-07-29T03:28:05;98924.72;;;18.80;82.47
7962;BME280;4026;43.652;24.906;2023-07-29T03:30:32;98918.53;;;18.81;82.36
7962;BME280;4026;43.652;24.906;2023-07-29T03:32:59;98923.38;;;18.84;82.63
7962;BME280;4026;43.652;24.906;2023-07-29T03:35:25;98916.25;;;18.86;82.79
7962;BME280;4026;43.652;24.906;2023-07-29T03:37:52;98918.84;;;18.86;82.57
7962;BME280;4026;43.652;24.906;2023-07-29T03:40:21;98915.13;;;18.88;82.68
7962;BME280;4026;43.652;24.906;2023-07-29T03:42:47;98912.00;;;18.93;82.88
7962;BME280;4026;43.652;24.906;2023-07-29T03:45:15;98913.66;;;18.94;83.36
7962;BME280;4026;43.652;24.906;2023-07-29T03:47:41;98908.47;;;18.94;83.31
7962;BME280;4026;43.652;24.906;2023-07-29T03:50:09;98914.25;;;18.96;83.37
7962;BME280;4026;43.652;24.906;2023-07-29T03:52:36;98909.72;;;18.98;83.67
7962;BME280;4026;43.652;24.906;2023-07-29T03:55:03;98918.16;;;19.00;83.87
7962;BME280;4026;43.652;24.906;2023-07-29T03:57:31;98917.00;;;19.03;84.00
7962;BME280;4026;43.652;24.906;2023-07-29T03:59:58;98922.66;;;19.06;84.40
7962;BME280;4026;43.652;24.906;2023-07-29T04:02:25;98927.66;;;19.08;84.78
7962;BME280;4026;43.652;24.906;2023-07-29T04:04:52;98924.94;;;19.01;85.14
7962;BME280;4026;43.652;24.906;2023-07-29T04:07:19;98925.59;;;19.03;85.12
7962;BME280;4026;43.652;24.906;2023-07-29T04:09:46;98932.69;;;19.09;84.93
7962;BME280;4026;43.652;24.906;2023-07-29T04:12:12;98934.63;;;19.07;84.78
7962;BME280;4026;43.652;24.906;2023-07-29T04:14:41;98924.56;;;19.12;84.33
7962;BME280;4026;43.652;24.906;2023-07-29T04:17:08;98930.66;;;19.19;84.10
7962;BME280;4026;43.652;24.906;2023-07-29T04:19:35;98940.31;;;19.34;83.13
7962;BME280;4026;43.652;24.906;2023-07-29T04:22:02;98927.97;;;19.44;82.81
7962;BME280;4026;43.652;24.906;2023-07-29T04:24:29;98931.47;;;19.51;82.24
7962;BME280;4026;43.652;24.906;2023-07-29T04:26:55;98927.22;;;19.58;82.40
7962;BME280;4026;43.652;24.906;2023-07-29T04:29:22;98933.38;;;19.57;82.68
7962;BME280;4026;43.652;24.906;2023-07-29T04:31:51;98938.41;;;19.59;82.19
7962;BME280;4026;43.652;24.906;2023-07-29T04:34:17;98946.47;;;19.64;82.12
7962;BME280;4026;43.652;24.906;2023-07-29T04:36:45;98942.22;;;19.71;81.54
7962;BME280;4026;43.652;24.906;2023-07-29T04:39:12;98939.47;;;19.73;82.29
7962;BME280;4026;43.652;24.906;2023-07-29T04:41:39;98947.16;;;19.81;81.64
7962;BME280;4026;43.652;24.906;2023-07-29T04:44:06;98944.16;;;19.92;81.77
7962;BME280;4026;43.652;24.906;2023-07-29T04:46:33;98947.63;;;20.07;81.33
7962;BME280;4026;43.652;24.906;2023-07-29T04:49:01;98949.09;;;20.25;81.57
7962;BME280;4026;43.652;24.906;2023-07-29T04:51:30;98953.16;;;20.42;80.74
7962;BME280;4026;43.652;24.906;2023-07-29T04:53:58;98943.25;;;20.61;79.48
7962;BME280;4026;43.652;24.906;2023-07-29T04:56:25;98947.94;;;20.80;79.35
7962;BME280;4026;43.652;24.906;2023-07-29T04:58:52;98956.31;;;20.97;78.04
7962;BME280;4026;43.652;24.906;2023-07-29T05:01:19;98959.88;;;21.11;78.47
7962;BME280;4026;43.652;24.906;2023-07-29T05:03:46;98944.53;;;21.31;76.25
7962;BME280;4026;43.652;24.906;2023-07-29T05:06:14;98949.53;;;21.47;74.59
7962;BME280;4026;43.652;24.906;2023-07-29T05:08:41;98945.25;;;21.61;72.24
7962;BME280;4026;43.652;24.906;2023-07-29T05:11:08;98947.38;;;21.72;73.03
7962;BME280;4026;43.652;24.906;2023-07-29T05:13:34;98939.31;;;21.88;72.84
7962;BME280;4026;43.652;24.906;2023-07-29T05:16:01;98943.91;;;22.08;72.44
7962;BME280;4026;43.652;24.906;2023-07-29T05:18:28;98951.69;;;22.29;74.19
7962;BME280;4026;43.652;24.906;2023-07-29T05:20:55;98950.41;;;22.47;70.92
7962;BME280;4026;43.652;24.906;2023-07-29T05:23:23;98955.66;;;22.60;69.54
7962;BME280;4026;43.652;24.906;2023-07-29T05:25:50;98952.19;;;22.81;69.71
7962;BME280;4026;43.652;24.906;2023-07-29T05:28:17;98959.72;;;22.97;68.92
7962;BME280;4026;43.652;24.906;2023-07-29T05:30:44;98963.19;;;23.11;64.76
7962;BME280;4026;43.652;24.906;2023-07-29T05:33:11;98962.47;;;23.31;65.32
7962;BME280;4026;43.652;24.906;2023-07-29T05:35:37;98958.09;;;23.51;64.99
7962;BME280;4026;43.652;24.906;2023-07-29T05:38:03;98964.94;;;23.65;65.01
7962;BME280;4026;43.652;24.906;2023-07-29T05:40:33;98963.38;;;23.78;62.51
7962;BME280;4026;43.652;24.906;2023-07-29T05:43:00;98964.22;;;23.98;63.56
7962;BME280;4026;43.652;24.906;2023-07-29T05:45:28;98966.59;;;24.20;65.53
7962;BME280;4026;43.652;24.906;2023-07-29T05:47:56;98971.44;;;24.36;70.66
7962;BME280;4026;43.652;24.906;2023-07-29T05:50:23;98970.63;;;24.55;65.18
7962;BME280;4026;43.652;24.906;2023-07-29T05:52:50;98973.81;;;24.71;63.93
7962;BME280;4026;43.652;24.906;2023-07-29T05:55:16;98980.63;;;24.85;65.88
7962;BME280;4026;43.652;24.906;2023-07-29T05:57:45;98979.56;;;24.99;66.85
7962;BME280;4026;43.652;24.906;2023-07-29T06:00:12;98989.00;;;25.14;65.64
7962;BME280;4026;43.652;24.906;2023-07-29T06:02:39;98994.75;;;25.29;61.46
7962;BME280;4026;43.652;24.906;2023-07-29T06:05:07;98993.69;;;25.43;62.08
7962;BME280;4026;43.652;24.906;2023-07-29T06:07:34;98991.59;;;25.59;58.58
7962;BME280;4026;43.652;24.906;2023-07-29T06:10:00;98992.50;;;25.71;56.75
7962;BME280;4026;43.652;24.906;2023-07-29T06:12:27;98991.53;;;25.72;56.08
7962;BME280;4026;43.652;24.906;2023-07-29T06:14:56;98990.59;;;25.91;59.63
7962;BME280;4026;43.652;24.906;2023-07-29T06:17:22;98996.13;;;26.08;59.80
7962;BME280;4026;43.652;24.906;2023-07-29T06:19:49;98994.03;;;26.17;55.50
7962;BME280;4026;43.652;24.906;2023-07-29T06:22:16;98991.75;;;26.27;57.98
7962;BME280;4026;43.652;24.906;2023-07-29T06:24:43;98990.59;;;26.41;59.64
7962;BME280;4026;43.652;24.906;2023-07-29T06:27:10;98993.78;;;26.50;52.79
7962;BME280;4026;43.652;24.906;2023-07-29T06:29:37;98991.31;;;26.74;56.91
7962;BME280;4026;43.652;24.906;2023-07-29T06:32:06;99003.78;;;26.97;53.88
7962;BME280;4026;43.652;24.906;2023-07-29T06:34:32;98996.47;;;26.99;50.66
7962;BME280;4026;43.652;24.906;2023-07-29T06:36:59;98996.03;;;27.02;52.63
7962;BME280;4026;43.652;24.906;2023-07-29T06:39:26;98997.66;;;27.03;50.11
7962;BME280;4026;43.652;24.906;2023-07-29T06:41:53;98996.34;;;27.12;50.64
7962;BME280;4026;43.652;24.906;2023-07-29T06:44:20;99006.69;;;27.25;49.82
7962;BME280;4026;43.652;24.906;2023-07-29T06:46:47;99005.91;;;27.55;48.09
7962;BME280;4026;43.652;24.906;2023-07-29T06:49:15;99004.91;;;27.68;47.28
7962;BME280;4026;43.652;24.906;2023-07-29T06:51:42;99005.56;;;27.82;47.40
7962;BME280;4026;43.652;24.906;2023-07-29T06:54:09;99005.63;;;28.05;47.69
7962;BME280;4026;43.652;24.906;2023-07-29T06:56:36;99008.00;;;28.18;47.10
7962;BME280;4026;43.652;24.906;2023-07-29T06:59:02;99003.22;;;28.27;45.53
7962;BME280;4026;43.652;24.906;2023-07-29T07:01:29;99002.75;;;28.30;47.03
7962;BME280;4026;43.652;24.906;2023-07-29T07:03:56;99010.09;;;28.28;44.57
7962;BME280;4026;43.652;24.906;2023-07-29T07:06:25;99009.66;;;28.55;47.70
7962;BME280;4026;43.652;24.906;2023-07-29T07:08:52;98998.66;;;28.70;49.27
7962;BME280;4026;43.652;24.906;2023-07-29T07:11:19;99002.06;;;28.94;47.33
7962;BME280;4026;43.652;24.906;2023-07-29T07:13:46;99008.78;;;29.01;42.93
7962;BME280;4026;43.652;24.906;2023-07-29T07:16:12;99004.94;;;28.92;42.77
7962;BME280;4026;43.652;24.906;2023-07-29T07:18:39;99006.75;;;29.03;44.80
7962;BME280;4026;43.652;24.906;2023-07-29T07:21:06;99010.75;;;29.34;47.01
7962;BME280;4026;43.652;24.906;2023-07-29T07:23:34;99010.91;;;29.56;47.94
7962;BME280;4026;43.652;24.906;2023-07-29T07:26:01;99006.81;;;29.77;45.74
7962;BME280;4026;43.652;24.906;2023-07-29T07:28:28;99010.44;;;29.88;47.64
7962;BME280;4026;43.652;24.906;2023-07-29T07:30:55;99012.91;;;29.95;44.16
7962;BME280;4026;43.652;24.906;2023-07-29T07:33:22;99012.25;;;30.05;43.41
7962;BME280;4026;43.652;24.906;2023-07-29T07:35:50;99008.78;;;30.33;48.80
7962;BME280;4026;43.652;24.906;2023-07-29T07:38:17;99009.84;;;30.54;45.03
7962;BME280;4026;43.652;24.906;2023-07-29T07:40:53;99007.91;;;30.66;47.37
7962;BME280;4026;43.652;24.906;2023-07-29T07:43:21;99011.56;;;30.82;43.16
7962;BME280;4026;43.652;24.906;2023-07-29T07:45:48;99004.53;;;30.87;44.48
7962;BME280;4026;43.652;24.906;2023-07-29T08:00:34;99001.63;;;31.60;39.76
7962;BME280;4026;43.652;24.906;2023-07-29T08:03:01;99003.72;;;31.58;43.86
7962;BME280;4026;43.652;24.906;2023-07-29T08:05:27;99002.75;;;31.69;38.35
7962;BME280;4026;43.652;24.906;2023-07-29T08:07:54;99002.38;;;31.88;45.30
7962;BME280;4026;43.652;24.906;2023-07-29T08:10:22;98999.72;;;31.88;44.53
7962;BME280;4026;43.652;24.906;2023-07-29T08:12:48;99001.19;;;31.73;40.25
7962;BME280;4026;43.652;24.906;2023-07-29T08:15:15;99000.38;;;31.95;44.00
7962;BME280;4026;43.652;24.906;2023-07-29T08:17:45;98997.34;;;32.18;44.57
7962;BME280;4026;43.652;24.906;2023-07-29T08:20:12;98990.50;;;32.22;40.34
7962;BME280;4026;43.652;24.906;2023-07-29T08:22:39;98987.84;;;32.22;43.21
7962;BME280;4026;43.652;24.906;2023-07-29T08:25:06;98986.81;;;32.29;43.44
7962;BME280;4026;43.652;24.906;2023-07-29T08:27:33;98985.66;;;32.14;37.33
7962;BME280;4026;43.652;24.906;2023-07-29T08:30:00;98987.78;;;32.12;41.89
7962;BME280;4026;43.652;24.906;2023-07-29T08:32:27;98987.94;;;32.33;43.51
7962;BME280;4026;43.652;24.906;2023-07-29T08:34:56;98982.88;;;32.31;39.79
7962;BME280;4026;43.652;24.906;2023-07-29T08:37:22;98985.44;;;32.58;42.71
7962;BME280;4026;43.652;24.906;2023-07-29T08:39:49;98981.22;;;32.62;40.37
7962;BME280;4026;43.652;24.906;2023-07-29T08:42:19;98982.88;;;32.74;40.62
7962;BME280;4026;43.652;24.906;2023-07-29T08:44:48;98981.22;;;32.62;38.49
7962;BME280;4026;43.652;24.906;2023-07-29T08:47:16;98973.91;;;32.85;42.37
7962;BME280;4026;43.652;24.906;2023-07-29T08:49:43;98989.91;;;33.05;38.61
7962;BME280;4026;43.652;24.906;2023-07-29T08:52:14;98985.66;;;33.09;40.00
7962;BME280;4026;43.652;24.906;2023-07-29T08:54:41;98986.50;;;33.25;42.84
7962;BME280;4026;43.652;24.906;2023-07-29T08:57:08;98978.84;;;33.34;41.03
7962;BME280;4026;43.652;24.906;2023-07-29T08:59:35;98980.69;;;33.44;41.33
7962;BME280;4026;43.652;24.906;2023-07-29T09:02:03;98980.72;;;33.54;40.94
7962;BME280;4026;43.652;24.906;2023-07-29T09:04:30;98973.84;;;33.53;39.30
7962;BME280;4026;43.652;24.906;2023-07-29T09:06:57;98973.59;;;33.70;37.43
7962;BME280;4026;43.652;24.906;2023-07-29T09:09:26;98966.94;;;33.88;39.65
7962;BME280;4026;43.652;24.906;2023-07-29T09:11:53;98975.19;;;33.81;39.06
7962;BME280;4026;43.652;24.906;2023-07-29T09:14:20;98965.63;;;33.85;39.50
7962;BME280;4026;43.652;24.906;2023-07-29T09:16:47;98968.81;;;33.92;36.10
7962;BME280;4026;43.652;24.906;2023-07-29T09:19:14;98963.75;;;34.01;42.07
7962;BME280;4026;43.652;24.906;2023-07-29T09:21:42;98967.75;;;34.09;40.72
7962;BME280;4026;43.652;24.906;2023-07-29T09:24:09;98968.25;;;34.00;34.60
7962;BME280;4026;43.652;24.906;2023-07-29T09:26:38;98973.59;;;34.11;39.98
7962;BME280;4026;43.652;24.906;2023-07-29T09:29:04;98960.84;;;33.62;37.80
7962;BME280;4026;43.652;24.906;2023-07-29T09:31:31;98959.50;;;33.54;42.12
7962;BME280;4026;43.652;24.906;2023-07-29T09:33:59;98958.72;;;33.53;38.23
7962;BME280;4026;43.652;24.906;2023-07-29T09:36:27;98956.59;;;33.66;36.78
7962;BME280;4026;43.652;24.906;2023-07-29T09:38:54;98956.88;;;33.79;37.95
7962;BME280;4026;43.652;24.906;2023-07-29T09:41:22;98956.88;;;33.79;38.79
7962;BME280;4026;43.652;24.906;2023-07-29T09:43:55;98952.88;;;33.77;39.28
7962;BME280;4026;43.652;24.906;2023-07-29T09:46:23;98961.34;;;33.94;40.34
7962;BME280;4026;43.652;24.906;2023-07-29T09:48:53;98961.34;;;33.99;39.40
7962;BME280;4026;43.652;24.906;2023-07-29T09:51:19;98952.09;;;34.07;41.63
7962;BME280;4026;43.652;24.906;2023-07-29T09:53:47;98952.84;;;34.23;38.20
7962;BME280;4026;43.652;24.906;2023-07-29T09:56:14;98964.53;;;33.50;34.28
7962;BME280;4026;43.652;24.906;2023-07-29T09:58:43;98957.16;;;33.73;37.28
7962;BME280;4026;43.652;24.906;2023-07-29T10:01:12;98956.34;;;33.72;36.91
7962;BME280;4026;43.652;24.906;2023-07-29T10:03:40;98951.28;;;33.96;34.31
7962;BME280;4026;43.652;24.906;2023-07-29T10:06:07;98956.34;;;34.08;40.73
7962;BME280;4026;43.652;24.906;2023-07-29T10:08:34;98944.63;;;34.24;35.45
7962;BME280;4026;43.652;24.906;2023-07-29T10:11:05;98944.34;;;34.26;38.36
7962;BME280;4026;43.652;24.906;2023-07-29T10:13:33;98953.69;;;33.98;31.46
7962;BME280;4026;43.652;24.906;2023-07-29T10:16:00;98944.94;;;34.08;36.55
7962;BME280;4026;43.652;24.906;2023-07-29T10:18:30;98947.25;;;34.35;37.77
7962;BME280;4026;43.652;24.906;2023-07-29T10:20:59;98938.53;;;34.24;36.44
7962;BME280;4026;43.652;24.906;2023-07-29T10:23:27;98936.91;;;34.28;36.94
7962;BME280;4026;43.652;24.906;2023-07-29T10:26:02;98938.19;;;34.46;36.67
7962;BME280;4026;43.652;24.906;2023-07-29T10:28:31;98938.44;;;34.49;33.61
7962;BME280;4026;43.652;24.906;2023-07-29T10:30:59;98938.25;;;34.90;38.02
7962;BME280;4026;43.652;24.906;2023-07-29T10:33:26;98932.94;;;34.90;32.12
7962;BME280;4026;43.652;24.906;2023-07-29T10:35:54;98936.56;;;35.15;35.43
7962;BME280;4026;43.652;24.906;2023-07-29T10:38:23;98929.81;;;35.28;37.57
7962;BME280;4026;43.652;24.906;2023-07-29T10:40:52;98927.31;;;35.47;35.91
7962;BME280;4026;43.652;24.906;2023-07-29T10:43:25;98927.41;;;35.31;33.71
7962;BME280;4026;43.652;24.906;2023-07-29T10:45:53;98916.09;;;35.55;37.16
7962;BME280;4026;43.652;24.906;2023-07-29T10:48:40;98925.75;;;35.41;31.98
7962;BME280;4026;43.652;24.906;2023-07-29T10:51:27;98910.50;;;35.51;35.18
7962;BME280;4026;43.652;24.906;2023-07-29T10:53:56;98917.13;;;35.54;33.99
7962;BME280;4026;43.652;24.906;2023-07-29T10:56:28;98912.47;;;35.41;33.39
7962;BME280;4026;43.652;24.906;2023-07-29T10:58:57;98912.00;;;35.28;35.27
7962;BME280;4026;43.652;24.906;2023-07-29T11:01:28;98910.34;;;35.37;35.22
7962;BME280;4026;43.652;24.906;2023-07-29T11:04:23;98910.97;;;35.24;33.69
7962;BME280;4026;43.652;24.906;2023-07-29T11:07:21;98901.56;;;34.98;34.06
7962;BME280;4026;43.652;24.906;2023-07-29T11:09:57;98902.47;;;34.78;33.94
7962;BME280;4026;43.652;24.906;2023-07-29T11:12:42;98896.78;;;35.00;36.10
7962;BME280;4026;43.652;24.906;2023-07-29T11:15:18;98898.88;;;35.03;33.85
7962;BME280;4026;43.652;24.906;2023-07-29T11:17:47;98901.94;;;35.25;33.83
7962;BME280;4026;43.652;24.906;2023-07-29T11:20:14;98901.94;;;35.25;33.24
7962;BME280;4026;43.652;24.906;2023-07-29T11:22:43;98899.16;;;35.41;33.03
7962;BME280;4026;43.652;24.906;2023-07-29T11:25:11;98895.50;;;35.31;33.83
7962;BME280;4026;43.652;24.906;2023-07-29T11:27:39;98886.78;;;35.60;35.64
7962;BME280;4026;43.652;24.906;2023-07-29T11:30:07;98889.94;;;35.62;33.66
7962;BME280;4026;43.652;24.906;2023-07-29T11:32:35;98894.16;;;35.68;32.17
7962;BME280;4026;43.652;24.906;2023-07-29T11:35:03;98888.00;;;35.38;33.12
7962;BME280;4026;43.652;24.906;2023-07-29T11:37:32;98878.66;;;35.46;36.14
7962;BME280;4026;43.652;24.906;2023-07-29T11:40:01;98874.69;;;35.44;35.08
7962;BME280;4026;43.652;24.906;2023-07-29T11:42:31;98869.28;;;35.49;35.61
7962;BME280;4026;43.652;24.906;2023-07-29T11:44:58;98878.47;;;35.37;33.42
7962;BME280;4026;43.652;24.906;2023-07-29T11:47:25;98871.53;;;35.36;36.31
7962;BME280;4026;43.652;24.906;2023-07-29T11:49:52;98879.00;;;35.34;33.31
7962;BME280;4026;43.652;24.906;2023-07-29T11:52:19;98868.31;;;35.40;35.95
7962;BME280;4026;43.652;24.906;2023-07-29T11:54:48;98872.09;;;35.33;33.64
7962;BME280;4026;43.652;24.906;2023-07-29T11:57:17;98868.25;;;35.50;34.18
7962;BME280;4026;43.652;24.906;2023-07-29T11:59:45;98867.16;;;35.51;31.75
7962;BME280;4026;43.652;24.906;2023-07-29T12:02:16;98867.66;;;35.58;34.00
7962;BME280;4026;43.652;24.906;2023-07-29T12:04:44;98857.63;;;35.45;33.29
7962;BME280;4026;43.652;24.906;2023-07-29T12:07:13;98864.88;;;35.39;31.56
7962;BME280;4026;43.652;24.906;2023-07-29T12:09:40;98867.25;;;35.41;34.10
7962;BME280;4026;43.652;24.906;2023-07-29T12:12:08;98865.84;;;35.14;33.83
7962;BME280;4026;43.652;24.906;2023-07-29T12:14:37;98866.03;;;34.88;31.37
7962;BME280;4026;43.652;24.906;2023-07-29T12:17:05;98865.03;;;35.19;36.82
7962;BME280;4026;43.652;24.906;2023-07-29T12:19:33;98856.25;;;35.23;35.08
7962;BME280;4026;43.652;24.906;2023-07-29T12:22:00;98857.84;;;35.19;33.92
7962;BME280;4026;43.652;24.906;2023-07-29T12:24:29;98852.03;;;35.17;33.14
7962;BME280;4026;43.652;24.906;2023-07-29T12:26:56;98850.38;;;35.26;34.44
7962;BME280;4026;43.652;24.906;2023-07-29T12:29:22;98848.19;;;35.28;35.35
7962;BME280;4026;43.652;24.906;2023-07-29T12:31:57;98854.06;;;35.25;33.83
7962;BME280;4026;43.652;24.906;2023-07-29T12:34:26;98849.94;;;35.43;33.69
7962;BME280;4026;43.652;24.906;2023-07-29T12:36:54;98845.34;;;35.20;31.23
7962;BME280;4026;43.652;24.906;2023-07-29T12:39:22;98851.00;;;35.13;32.89
7962;BME280;4026;43.652;24.906;2023-07-29T12:41:50;98849.00;;;34.95;32.62
7962;BME280;4026;43.652;24.906;2023-07-29T12:44:18;98843.88;;;35.03;36.13
7962;BME280;4026;43.652;24.906;2023-07-29T12:46:45;98849.16;;;34.69;30.86
7962;BME280;4026;43.652;24.906;2023-07-29T12:49:13;98839.75;;;34.82;33.74
7962;BME280;4026;43.652;24.906;2023-07-29T12:51:40;98851.75;;;34.79;32.74
7962;BME280;4026;43.652;24.906;2023-07-29T12:54:07;98846.97;;;34.76;32.20
7962;BME280;4026;43.652;24.906;2023-07-29T12:56:34;98847.53;;;34.73;33.22
7962;BME280;4026;43.652;24.906;2023-07-29T12:59:02;98851.28;;;34.67;32.60
7962;BME280;4026;43.652;24.906;2023-07-29T13:01:29;98850.00;;;34.54;34.59
7962;BME280;4026;43.652;24.906;2023-07-29T13:03:56;98847.03;;;34.66;34.49
7962;BME280;4026;43.652;24.906;2023-07-29T13:06:24;98843.06;;;34.63;34.15
7962;BME280;4026;43.652;24.906;2023-07-29T13:08:51;98855.00;;;34.66;31.14
7962;BME280;4026;43.652;24.906;2023-07-29T13:11:18;98853.03;;;34.32;30.26
7962;BME280;4026;43.652;24.906;2023-07-29T13:13:45;98854.13;;;34.21;31.93
7962;BME280;4026;43.652;24.906;2023-07-29T13:16:12;98853.09;;;34.17;31.29
7962;BME280;4026;43.652;24.906;2023-07-29T13:18:39;98847.78;;;34.22;31.51
7962;BME280;4026;43.652;24.906;2023-07-29T13:21:07;98842.75;;;34.15;31.72
7962;BME280;4026;43.652;24.906;2023-07-29T13:23:35;98847.81;;;34.01;31.71
7962;BME280;4026;43.652;24.906;2023-07-29T13:26:02;98846.75;;;33.97;32.73